METAR AND TAF INFORMATION
METAR FOR LEVC
ADDS - METARS form results

(2106 UTC 20 February 2020)
Data provider http://aviationweather.gov/metar/data/
 
METAR text: LEVC 202100Z 34003KT 300V020 9999 FEW015 10/09 Q1027 NOSIG
Conditions at: LEVC (VALENCIA (CIV/MI, ES) observed 2100 UTC 20 February 2020
Temperature: 10.0°C (50°F)
Dewpoint: 9.0°C (48°F) [RH = 93%]
Pressure (altimeter): 30.32 inches Hg (1027.0 mb)
Winds: from the NNW (340 degrees) at 3 MPH (3 knots; 1.5 m/s)
Visibility: 6 or more miles (10+ km)
Ceiling: at least 12,000 feet AGL
Clouds: few clouds at 1500 feet AGL
Weather: no significant weather observed at this time

METAR text: LEVC 202030Z 35004KT 9999 FEW018 12/10 Q1027 NOSIG
Conditions at: LEVC (VALENCIA (CIV/MI, ES) observed 2030 UTC 20 February 2020
Temperature: 12.0°C (54°F)
Dewpoint: 10.0°C (50°F) [RH = 88%]
Pressure (altimeter): 30.32 inches Hg (1027.0 mb)
Winds: from the N (350 degrees) at 5 MPH (4 knots; 2.1 m/s)
Visibility: 6 or more miles (10+ km)
Ceiling: at least 12,000 feet AGL
Clouds: few clouds at 1800 feet AGL
Weather: no significant weather observed at this time

Forecast for: LEVC (VALENCIA (CIV/MI, ES)
Text: TAF LEVC 201700Z 2018/2118 VRB03KT 9999 FEW025 TX18/2113Z TN05/2106Z
Forecast period: 1800 UTC 20 February 2020 to 1800 UTC 21 February 2020
Forecast type: FROM: standard forecast or significant change
Winds: variable direction winds at 3 MPH (3 knots; 1.5 m/s)
Visibility: 6 or more miles 10+ km)
Ceiling: at least 12,000 feet AGL
Clouds: few clouds at 2500 feet AGL
Weather: no significant weather forecast for this period
Text: TEMPO 2111/2116 10006KT
Forecast period: 1100 to 1600 UTC 21 February 2020
Forecast type: TEMPORARY: The following changes expected for less than half the time period
Winds: from the E (100 degrees) at 7 MPH (6 knots; 3.1 m/s)
Visibility: missing
Ceiling: unknown
Clouds: missing
Weather: no significant weather forecast for this period

 AIRPORT MAP

 RUNWAY INFORMATION
Runway 04 Runway length 5394 ft Runway width 148 ft
Runway elevation 205 ft Runway displaced threshold 0 ft Runway heading 38
Runway 22 Runway length 5394 ft Runway width 148 ft
Runway elevation 188 ft Runway displaced threshold 0 ft Runway heading 218
Runway 12 Runway length 8858 ft Runway width 148 ft
Runway elevation 225 ft Runway displaced threshold 0 ft Runway heading 116
Runway 30 Runway length 8858 ft Runway width 148 ft
Runway elevation 172 ft Runway displaced threshold 0 ft Runway heading 296

 AIRPORT FREQUENCIES
Type APP Name APP Frequency 120.1 MHZ
Type ATIS Name ATIS Frequency 121.075 MHZ
Type GND Name GND Frequency 121.7 MHZ
Type TWR Name TWR Frequency 118.55 MHZ

 AIRPORT NEAR NAVIGATION AIDS
Type NDB Name Valencia Frequency 400 KHZ
Type NDB Name Valencia Frequency 340 KHZ
Type NDB Name Sagunto Frequency 356 KHZ
Type VOR-DME Name Valencia Frequency 116100 KHZ



Powered by Virtual Airlines Manager [v2.6.2]